createdAt,value
2018-03-26T00:02:18.551Z,99779.90
2018-03-26T00:04:49.495Z,99777.91
2018-03-26T00:07:20.544Z,99776.20
2018-03-26T00:09:51.463Z,99771.50
2018-03-26T00:12:22.712Z,99780.59
2018-03-26T00:14:53.663Z,99782.39
2018-03-26T00:17:24.684Z,99777.69
2018-03-26T00:19:55.640Z,99768.73
2018-03-26T00:22:26.659Z,99772.39
2018-03-26T00:24:57.253Z,99782.86
2018-03-26T00:27:27.782Z,99785.05
2018-03-26T00:29:58.242Z,99781.36
2018-03-26T00:32:28.974Z,99776.94
2018-03-26T00:34:59.705Z,99776.81
2018-03-26T00:37:35.588Z,99773.99
2018-03-26T00:40:04.718Z,99774.42
2018-03-26T00:42:33.911Z,99768.41
2018-03-26T00:45:03.283Z,99773.28
2018-03-26T00:47:33.735Z,99768.60
2018-03-26T00:50:04.193Z,99770.27
2018-03-26T00:52:35.695Z,99764.97
2018-03-26T00:55:06.728Z,99764.41
2018-03-26T00:57:37.342Z,99759.60
2018-03-26T01:00:07.655Z,99763.70
2018-03-26T01:02:38.668Z,99755.25
2018-03-26T01:05:09.695Z,99759.70
2018-03-26T01:07:40.635Z,99761.34
2018-03-26T01:10:11.645Z,99765.89
2018-03-26T01:12:42.595Z,99762.06
2018-03-26T01:15:13.580Z,99757.91
2018-03-26T01:17:44.521Z,99756.53
2018-03-26T01:20:15.163Z,99758.10
2018-03-26T01:22:45.746Z,99753.27
2018-03-26T01:25:16.678Z,99756.44
2018-03-26T01:27:47.608Z,99757.09
2018-03-26T01:30:18.643Z,99758.46
2018-03-26T01:32:49.590Z,99760.03
2018-03-26T01:35:20.584Z,99759.08
2018-03-26T01:37:51.710Z,99765.23
2018-03-26T01:40:22.759Z,99758.52
2018-03-26T01:42:53.596Z,99757.34
2018-03-26T01:45:24.574Z,99755.38
2018-03-26T01:47:55.535Z,99752.34
2018-03-26T01:50:26.420Z,99753.13
2018-03-26T01:52:57.285Z,99751.30
2018-03-26T01:55:28.671Z,99754.02
2018-03-26T01:57:59.604Z,99754.90
2018-03-26T02:00:30.595Z,99753.30
2018-03-26T02:03:01.600Z,99758.17
2018-03-26T02:05:32.584Z,99763.98
2018-03-26T02:08:03.552Z,99768.86
2018-03-26T02:10:34.547Z,99768.44
2018-03-26T02:13:05.505Z,99770.53
2018-03-26T02:15:36.480Z,99771.31
2018-03-26T02:18:07.447Z,99768.63
2018-03-26T02:20:38.543Z,99780.77
2018-03-26T02:23:09.135Z,99773.28
2018-03-26T02:25:39.731Z,99776.68
2018-03-26T02:28:10.644Z,99771.91
2018-03-26T02:30:41.651Z,99772.98
2018-03-26T02:33:12.592Z,99771.16
2018-03-26T02:35:43.582Z,99770.99
2018-03-26T02:38:14.836Z,99767.88
2018-03-26T02:40:50.496Z,99769.52
2018-03-26T02:43:19.842Z,99765.53
2018-03-26T02:45:49.044Z,99771.48
2018-03-26T02:48:19.034Z,99771.34
2018-03-26T02:50:49.856Z,99771.34
2018-03-26T02:53:20.732Z,99771.84
2018-03-26T02:55:51.682Z,99767.55
2018-03-26T02:58:22.775Z,99769.68
2018-03-26T03:00:53.573Z,99754.80
2018-03-26T03:03:24.558Z,99771.13
2018-03-26T03:05:55.122Z,99771.55
2018-03-26T03:08:25.726Z,99771.05
2018-03-26T03:10:56.651Z,99774.09
2018-03-26T03:13:27.690Z,99772.79
2018-03-26T03:15:58.635Z,99768.02
2018-03-26T03:18:29.653Z,99772.49
2018-03-26T03:21:00.264Z,99775.47
2018-03-26T03:23:30.784Z,99777.41
2018-03-26T03:26:01.582Z,99779.27
2018-03-26T03:28:32.543Z,99771.28
2018-03-26T03:31:03.776Z,99770.33
2018-03-26T03:33:34.675Z,99771.80
2018-03-26T03:36:05.666Z,99771.45
2018-03-26T03:38:36.790Z,99771.41
2018-03-26T03:41:07.291Z,99769.35
2018-03-26T03:43:37.798Z,99768.89
2018-03-26T03:46:08.937Z,99767.03
2018-03-26T03:48:39.778Z,99770.95
2018-03-26T03:51:10.587Z,99764.84
2018-03-26T03:53:41.595Z,99762.13
2018-03-26T03:56:12.533Z,99759.19
2018-03-26T03:58:43.607Z,99762.16
2018-03-26T04:01:14.160Z,99767.45
2018-03-26T04:03:44.734Z,99770.30
2018-03-26T04:06:15.296Z,99771.02
2018-03-26T04:08:45.778Z,99773.70
2018-03-26T04:11:16.610Z,99772.48
2018-03-26T04:13:47.592Z,99778.77
2018-03-26T04:16:18.527Z,99776.38
2018-03-26T04:18:49.179Z,99771.45
2018-03-26T04:21:19.730Z,99769.55
2018-03-26T04:23:50.369Z,99769.09
2018-03-26T04:26:21.927Z,99767.52
2018-03-26T04:28:52.282Z,99760.45
2018-03-26T04:31:23.113Z,99762.02
2018-03-26T04:33:53.819Z,99760.26
2018-03-26T04:36:24.700Z,99760.42
2018-03-26T04:38:55.831Z,99763.40
2018-03-26T04:41:26.699Z,99768.89
2018-03-26T04:44:04.533Z,99763.08
2018-03-26T04:46:33.829Z,99765.23
2018-03-26T04:49:03.051Z,99773.54
2018-03-26T04:51:32.326Z,99773.61
2018-03-26T04:54:01.512Z,99774.48
2018-03-26T04:56:32.127Z,99779.63
2018-03-26T04:59:02.816Z,99778.55
2018-03-26T05:01:33.642Z,99750.22
2018-03-26T05:04:04.641Z,99773.08
2018-03-26T05:06:35.563Z,99773.70
2018-03-26T05:09:05.978Z,99771.48
2018-03-26T05:11:36.762Z,99775.59
2018-03-26T05:14:07.682Z,99769.42
2018-03-26T05:16:38.619Z,99776.61
2018-03-26T05:19:09.597Z,99775.20
2018-03-26T05:21:40.579Z,99777.89
2018-03-26T05:24:11.573Z,99781.06
2018-03-26T05:26:42.519Z,99779.20
2018-03-26T05:29:13.106Z,99783.38
2018-03-26T05:31:43.686Z,99784.66
2018-03-26T05:34:14.369Z,99783.87
2018-03-26T05:36:44.019Z,99779.35
2018-03-26T05:39:14.750Z,99784.52
2018-03-26T05:41:45.606Z,99782.39
2018-03-26T05:44:16.646Z,99782.75
2018-03-26T05:46:47.585Z,99792.04
2018-03-26T05:49:18.584Z,99791.73
2018-03-26T05:51:49.135Z,99791.88
2018-03-26T05:54:19.783Z,99781.39
2018-03-26T05:56:50.642Z,99783.55
2018-03-26T05:59:21.656Z,99786.69
2018-03-26T06:01:52.587Z,99786.34
2018-03-26T06:04:23.737Z,99784.43
2018-03-26T06:06:54.357Z,99787.19
2018-03-26T06:09:25.017Z,99777.53
2018-03-26T06:11:55.014Z,99784.00
2018-03-26T06:14:25.828Z,99783.14
2018-03-26T06:17:07.694Z,99791.88
2018-03-26T06:19:37.027Z,99794.58
2018-03-26T06:22:06.514Z,99792.78
2018-03-26T06:24:35.710Z,99795.96
2018-03-26T06:27:05.336Z,99792.68
2018-03-26T06:29:34.622Z,99796.73
2018-03-26T06:32:03.723Z,99802.56
2018-03-26T06:34:32.956Z,99808.12
2018-03-26T06:37:17.898Z,99805.17
2018-03-26T06:39:47.182Z,99806.45
2018-03-26T06:42:16.414Z,99814.59
2018-03-26T06:44:45.901Z,99813.34
2018-03-26T06:47:15.202Z,99806.44
2018-03-26T06:49:44.412Z,99811.45
2018-03-26T06:52:13.615Z,99811.80
2018-03-26T06:54:42.889Z,99815.63
2018-03-26T06:57:12.138Z,99817.04
2018-03-26T06:59:41.342Z,99812.44
2018-03-26T07:02:12.061Z,99812.34
2018-03-26T07:04:42.758Z,99813.72
2018-03-26T07:07:13.751Z,99814.72
2018-03-26T07:09:44.714Z,99813.16
2018-03-26T07:12:15.715Z,99813.89
2018-03-26T07:14:46.663Z,99817.70
2018-03-26T07:17:17.800Z,99815.90
2018-03-26T07:19:48.254Z,99819.77
2018-03-26T07:22:18.790Z,99823.63
2018-03-26T07:24:50.451Z,99829.37
2018-03-26T07:27:21.078Z,99824.11
2018-03-26T07:29:51.760Z,99830.91
2018-03-26T07:32:22.656Z,99830.45
2018-03-26T07:34:53.601Z,99830.02
2018-03-26T07:37:24.626Z,99829.48
2018-03-26T07:39:55.587Z,99830.80
2018-03-26T07:42:26.594Z,99825.56
2018-03-26T07:44:57.579Z,99809.16
2018-03-26T07:47:28.652Z,99819.49
2018-03-26T07:49:59.490Z,99825.03
2018-03-26T07:52:30.195Z,99825.28
2018-03-26T07:55:00.727Z,99829.68
2018-03-26T07:57:31.696Z,99826.63
2018-03-26T08:00:02.687Z,99828.94
2018-03-26T08:02:33.685Z,99836.85
2018-03-26T08:05:04.883Z,99844.12
2018-03-26T08:07:35.684Z,99849.28
2018-03-26T08:10:10.258Z,99840.80
2018-03-26T08:12:39.515Z,99843.64
2018-03-26T08:15:09.159Z,99841.23
2018-03-26T08:17:39.790Z,99842.75
2018-03-26T08:20:10.659Z,99849.30
2018-03-26T08:22:41.678Z,99841.71
2018-03-26T08:25:12.633Z,99844.67
2018-03-26T08:27:43.646Z,99844.52
2018-03-26T08:30:14.598Z,99847.20
2018-03-26T08:32:45.611Z,99841.97
2018-03-26T08:35:16.582Z,99821.86
2018-03-26T08:37:47.987Z,99853.27
2018-03-26T08:40:18.662Z,99849.48
2018-03-26T08:42:49.679Z,99846.25
2018-03-26T08:45:20.641Z,99848.36
2018-03-26T08:47:51.393Z,99856.00
2018-03-26T08:50:22.028Z,99848.21
2018-03-26T08:52:52.801Z,99854.71
2018-03-26T08:55:23.262Z,99859.52
2018-03-26T08:57:53.499Z,99858.74
2018-03-26T09:00:24.477Z,99855.13
2018-03-26T09:02:55.514Z,99858.90
2018-03-26T09:05:26.475Z,99851.78
2018-03-26T09:07:57.655Z,99852.50
2018-03-26T09:10:28.670Z,99860.84
2018-03-26T09:12:59.706Z,99853.38
2018-03-26T09:15:30.620Z,99851.95
2018-03-26T09:18:01.265Z,99853.80
2018-03-26T09:20:33.182Z,99849.13
2018-03-26T09:23:03.052Z,99847.73
2018-03-26T09:25:33.750Z,99855.38
2018-03-26T09:28:04.674Z,99856.50
2018-03-26T09:30:35.588Z,99854.68
2018-03-26T09:33:06.553Z,99855.62
2018-03-26T09:35:37.463Z,99855.11
2018-03-26T09:38:08.448Z,99837.62
2018-03-26T09:40:39.354Z,99856.44
2018-03-26T09:43:10.448Z,99867.00
2018-03-26T09:45:41.383Z,99866.38
2018-03-26T09:48:12.435Z,99864.87
2018-03-26T09:50:43.417Z,99867.53
2018-03-26T09:53:14.140Z,99866.28
2018-03-26T09:55:44.719Z,99866.30
2018-03-26T09:58:15.630Z,99866.28
2018-03-26T10:00:49.451Z,99858.38
2018-03-26T10:03:18.724Z,99861.37
2018-03-26T10:05:49.306Z,99863.73
2018-03-26T10:08:19.805Z,99852.77
2018-03-26T10:10:50.728Z,99853.09
2018-03-26T10:13:21.727Z,99852.82
2018-03-26T10:15:52.583Z,99851.61
2018-03-26T10:18:23.613Z,99845.62
2018-03-26T10:20:54.227Z,99856.87
2018-03-26T10:23:24.772Z,99856.31
2018-03-26T10:25:55.743Z,99852.91
2018-03-26T10:28:27.116Z,99852.09
2018-03-26T10:30:57.734Z,99848.05
2018-03-26T10:33:28.750Z,99861.39
2018-03-26T10:35:59.209Z,99850.48
2018-03-26T10:38:29.791Z,99853.00
2018-03-26T10:41:00.691Z,99854.31
2018-03-26T10:43:31.335Z,99854.58
2018-03-26T10:46:02.051Z,99851.20
2018-03-26T10:48:32.809Z,99850.86
2018-03-26T10:51:03.613Z,99847.92
2018-03-26T10:53:34.615Z,99855.67
2018-03-26T10:56:05.643Z,99853.38
2018-03-26T10:58:36.287Z,99852.02
2018-03-26T11:01:06.794Z,99854.36
2018-03-26T11:03:37.720Z,99860.11
2018-03-26T11:06:08.636Z,99851.97
2018-03-26T11:08:39.648Z,99848.14
2018-03-26T11:11:10.228Z,99858.03
2018-03-26T11:13:40.866Z,99860.23
2018-03-26T11:16:11.599Z,99851.72
2018-03-26T11:18:42.600Z,99857.84
2018-03-26T11:21:13.196Z,99859.67
2018-03-26T11:23:46.036Z,99858.99
2018-03-26T11:26:16.161Z,99858.57
2018-03-26T11:28:46.492Z,99859.49
2018-03-26T11:31:17.378Z,99851.70
2018-03-26T11:33:48.019Z,99847.16
2018-03-26T11:36:18.749Z,99856.61
2018-03-26T11:38:49.830Z,99853.70
2018-03-26T11:41:20.729Z,99853.32
2018-03-26T11:43:51.810Z,99860.15
2018-03-26T11:46:22.681Z,99859.85
2018-03-26T11:48:53.693Z,99858.15
2018-03-26T11:51:24.675Z,99858.91
2018-03-26T11:53:55.679Z,99850.30
2018-03-26T11:56:26.642Z,99853.92
2018-03-26T11:58:57.711Z,99850.36
2018-03-26T12:01:28.273Z,99851.72
2018-03-26T12:03:59.012Z,99859.64
2018-03-26T12:06:29.662Z,99851.63
2018-03-26T12:09:00.328Z,99850.86
2018-03-26T12:11:30.995Z,99845.27
2018-03-26T12:14:01.778Z,99842.47
2018-03-26T12:16:32.696Z,99842.94
2018-03-26T12:19:03.707Z,99838.16
2018-03-26T12:21:34.291Z,99838.25
2018-03-26T12:24:15.748Z,99845.58
2018-03-26T12:26:45.174Z,99843.48
2018-03-26T12:29:25.348Z,99842.43
2018-03-26T12:31:54.268Z,99845.14
2018-03-26T12:34:36.046Z,99842.77
2018-03-26T12:37:04.975Z,99849.63
2018-03-26T12:39:33.918Z,99847.75
2018-03-26T12:42:02.912Z,99842.64
2018-03-26T12:44:42.698Z,99843.53
2018-03-26T12:47:11.709Z,99841.15
2018-03-26T12:49:40.635Z,99843.02
2018-03-26T12:52:20.621Z,99841.48
2018-03-26T12:54:49.579Z,99842.81
2018-03-26T12:57:29.501Z,99842.00
2018-03-26T12:59:58.483Z,99843.88
2018-03-26T13:02:29.317Z,99843.16
2018-03-26T13:04:58.599Z,99851.72
2018-03-26T13:07:28.022Z,99848.52
2018-03-26T13:09:57.004Z,99853.77
2018-03-26T13:12:25.945Z,99860.02
2018-03-26T13:14:54.844Z,99853.15
2018-03-26T13:17:24.338Z,99865.88
2018-03-26T13:19:53.660Z,99859.24
2018-03-26T13:22:22.825Z,99862.06
2018-03-26T13:24:52.782Z,99864.31
2018-03-26T13:27:25.784Z,99862.23
2018-03-26T13:29:54.788Z,99867.30
2018-03-26T13:32:24.016Z,99862.99
2018-03-26T13:34:52.941Z,99861.98
2018-03-26T13:37:21.997Z,99860.69
2018-03-26T13:39:50.907Z,99859.16
2018-03-26T13:42:19.844Z,99862.70
2018-03-26T13:44:48.855Z,99862.41
2018-03-26T13:47:17.777Z,99861.69
2018-03-26T13:49:46.752Z,99867.69
2018-03-26T13:52:15.784Z,99865.73
2018-03-26T13:54:45.025Z,99862.23
2018-03-26T13:57:14.260Z,99863.77
2018-03-26T13:59:43.303Z,99864.96
2018-03-26T14:02:12.536Z,99868.79
2018-03-26T14:04:42.522Z,99863.52
2018-03-26T14:07:11.909Z,99863.91
2018-03-26T14:09:52.209Z,99868.03
2018-03-26T14:12:32.394Z,99861.73
2018-03-26T14:15:12.648Z,99860.97
2018-03-26T14:17:50.436Z,99861.48
2018-03-26T14:20:19.567Z,99864.55
2018-03-26T14:22:48.543Z,99861.61
2018-03-26T14:25:17.650Z,99846.30
2018-03-26T14:27:46.568Z,99866.55
2018-03-26T14:30:15.559Z,99866.20
2018-03-26T14:32:44.645Z,99867.78
2018-03-26T14:38:26.938Z,99863.44
2018-03-26T14:40:55.870Z,99865.61
2018-03-26T14:43:24.864Z,99859.13
2018-03-26T14:45:53.881Z,99867.66
2018-03-26T14:48:22.796Z,99861.59
2018-03-26T14:50:51.728Z,99856.77
2018-03-26T14:53:20.729Z,99852.84
2018-03-26T14:55:49.417Z,99851.27
2018-03-26T14:58:18.459Z,99849.98
2018-03-26T15:00:47.592Z,99846.88
2018-03-26T15:03:16.578Z,99841.87
2018-03-26T15:05:45.508Z,99846.62
2018-03-26T15:08:14.639Z,99850.28
2018-03-26T15:10:43.625Z,99846.66
2018-03-26T15:13:13.871Z,99848.62
2018-03-26T15:15:43.012Z,99847.66
2018-03-26T15:18:11.957Z,99849.75
2018-03-26T15:20:41.026Z,99846.76
2018-03-26T15:23:10.005Z,99852.00
2018-03-26T15:25:39.511Z,99854.18
2018-03-26T15:28:08.516Z,99847.91
2018-03-26T15:30:39.737Z,99847.73
2018-03-26T15:33:08.652Z,99850.94
2018-03-26T15:35:37.578Z,99856.66
2018-03-26T15:38:06.566Z,99856.48
2018-03-26T15:40:35.599Z,99860.06
2018-03-26T15:43:04.568Z,99859.94
2018-03-26T15:45:33.622Z,99860.80
2018-03-26T15:48:02.551Z,99864.80
2018-03-26T15:50:31.905Z,99866.21
2018-03-26T15:53:00.879Z,99863.31
2018-03-26T15:55:30.112Z,99860.45
2018-03-26T15:57:59.325Z,99867.75
2018-03-26T16:00:28.608Z,99869.57
2018-03-26T16:03:03.360Z,99871.11
2018-03-26T16:05:32.813Z,99871.87
2018-03-26T16:08:02.105Z,99872.16
2018-03-26T16:10:31.371Z,99879.13
2018-03-26T16:13:00.920Z,99881.53
2018-03-26T16:15:30.193Z,99883.19
2018-03-26T16:17:59.451Z,99883.98
2018-03-26T16:20:28.877Z,99883.73
2018-03-26T16:22:58.358Z,99886.66
2018-03-26T16:25:27.620Z,99891.55
2018-03-26T16:27:58.316Z,99893.00
2018-03-26T16:30:28.782Z,99898.09
2018-03-26T16:32:59.719Z,99896.43
2018-03-26T16:35:31.166Z,99901.82
2018-03-26T16:38:01.864Z,99901.63
2018-03-26T16:40:32.706Z,99911.75
2018-03-26T16:43:07.450Z,99915.61
2018-03-26T16:45:36.884Z,99911.72
2018-03-26T16:48:06.454Z,99917.28
2018-03-26T16:50:36.243Z,99914.03
2018-03-26T16:53:06.747Z,99915.14
2018-03-26T16:55:37.780Z,99918.41
2018-03-26T16:58:08.282Z,99920.55
2018-03-26T17:00:39.114Z,99919.30
2018-03-26T17:03:09.804Z,99922.02
2018-03-26T17:05:40.455Z,99923.73
2018-03-26T17:08:11.101Z,99928.19
2018-03-26T17:10:41.843Z,99933.88
2018-03-26T17:13:12.727Z,99933.30
2018-03-26T17:15:43.825Z,99928.73
2018-03-26T17:18:14.699Z,99927.68
2018-03-26T17:20:45.809Z,99932.20
2018-03-26T17:23:16.829Z,99930.27
2018-03-26T17:25:47.771Z,99929.84
2018-03-26T17:28:18.805Z,99929.84
2018-03-26T17:30:49.747Z,99931.18
2018-03-26T17:33:22.191Z,99932.91
2018-03-26T17:35:52.164Z,99930.48
2018-03-26T17:38:22.773Z,99939.22
2018-03-26T17:40:53.709Z,99932.20
2018-03-26T17:43:24.728Z,99932.61
2018-03-26T17:45:55.460Z,99942.64
2018-03-26T17:48:26.091Z,99940.13
2018-03-26T17:50:56.840Z,99944.44
2018-03-26T17:53:27.803Z,99941.50
2018-03-26T17:55:58.775Z,99947.46
2018-03-26T17:58:29.969Z,99946.77
2018-03-26T18:01:00.824Z,99942.86
2018-03-26T18:03:31.745Z,99949.92
2018-03-26T18:06:02.761Z,99955.07
2018-03-26T18:08:33.785Z,99948.82
2018-03-26T18:11:04.935Z,99952.16
2018-03-26T18:13:35.763Z,99953.92
2018-03-26T18:16:06.880Z,99953.38
2018-03-26T18:18:37.718Z,99953.17
2018-03-26T18:21:08.850Z,99952.47
2018-03-26T18:23:39.746Z,99952.63
2018-03-26T18:26:10.799Z,99958.87
2018-03-26T18:28:41.681Z,99957.47
2018-03-26T18:31:12.803Z,99961.35
2018-03-26T18:33:43.776Z,99954.29
2018-03-26T18:36:14.796Z,99956.37
2018-03-26T18:38:45.737Z,99962.13
2018-03-26T18:41:16.857Z,99964.41
2018-03-26T18:43:47.824Z,99964.56
2018-03-26T18:46:18.895Z,99963.80
2018-03-26T18:48:49.833Z,99966.22
2018-03-26T18:51:21.085Z,99968.50
2018-03-26T18:53:51.204Z,99967.18
2018-03-26T18:56:21.937Z,99978.17
2018-03-26T18:58:52.443Z,99974.87
2018-03-26T19:01:23.155Z,99984.22
2018-03-26T19:03:53.764Z,99975.73
2018-03-26T19:06:24.911Z,99973.92
2018-03-26T19:08:55.762Z,99980.38
2018-03-26T19:11:26.908Z,99978.06
2018-03-26T19:13:57.848Z,99979.15
2018-03-26T19:16:28.811Z,99980.58
2018-03-26T19:18:59.404Z,99974.07
2018-03-26T19:21:30.179Z,99973.99
2018-03-26T19:24:00.931Z,99981.77
2018-03-26T19:26:31.878Z,99980.92
2018-03-26T19:29:02.740Z,99984.48
2018-03-26T19:31:33.469Z,99985.23
2018-03-26T19:34:04.159Z,99985.06
2018-03-26T19:36:34.878Z,99985.67
2018-03-26T19:39:05.952Z,99988.25
2018-03-26T19:41:36.880Z,99989.80
2018-03-26T19:44:08.413Z,99989.57
2018-03-26T19:46:39.177Z,99998.61
2018-03-26T19:49:09.939Z,99996.70
2018-03-26T19:51:40.906Z,99996.49
2018-03-26T19:54:11.995Z,99998.34
2018-03-26T19:56:43.078Z,99995.91
2018-03-26T19:59:14.019Z,100002.31
2018-03-26T20:01:45.038Z,100006.25
2018-03-26T20:04:15.922Z,100004.23
2018-03-26T20:06:46.990Z,100002.83
2018-03-26T20:09:17.829Z,100007.93
2018-03-26T20:11:48.414Z,100010.54
2018-03-26T20:14:19.044Z,100012.64
2018-03-26T20:16:49.863Z,100014.73
2018-03-26T20:19:20.731Z,100010.88
2018-03-26T20:21:51.751Z,99992.72
2018-03-26T20:24:22.386Z,100013.70
2018-03-26T20:26:53.156Z,100013.17
2018-03-26T20:29:23.739Z,100016.94
2018-03-26T20:31:54.607Z,100017.64
2018-03-26T20:34:25.318Z,100018.06
2018-03-26T20:36:55.401Z,100022.22
2018-03-26T20:39:26.113Z,100023.01
2018-03-26T20:41:56.842Z,100024.05
2018-03-26T20:44:27.754Z,100024.77
2018-03-26T20:46:58.842Z,100027.37
2018-03-26T20:49:29.708Z,100026.41
2018-03-26T20:52:00.727Z,100030.87
2018-03-26T20:54:31.819Z,100028.23
2018-03-26T20:57:02.736Z,100037.00
2018-03-26T20:59:33.752Z,100032.81
2018-03-26T21:02:04.452Z,100027.44
2018-03-26T21:04:35.113Z,100030.84
2018-03-26T21:07:05.807Z,100029.45
2018-03-26T21:09:36.939Z,100025.52
2018-03-26T21:12:07.848Z,100028.03
2018-03-26T21:14:38.703Z,100029.47
2018-03-26T21:17:09.873Z,100029.80
2018-03-26T21:19:40.685Z,100036.04
2018-03-26T21:22:11.771Z,100024.53
2018-03-26T21:24:42.510Z,100031.23
2018-03-26T21:27:13.241Z,100032.67
2018-03-26T21:29:43.078Z,100000.30
2018-03-26T21:32:18.829Z,100029.28
2018-03-26T21:34:48.160Z,100036.13
2018-03-26T21:37:17.414Z,100036.71
2018-03-26T21:39:47.189Z,100031.04
2018-03-26T21:42:17.793Z,100033.56
2018-03-26T21:44:48.890Z,100034.70
2018-03-26T21:47:19.286Z,100039.64
2018-03-26T21:49:50.102Z,100038.93
2018-03-26T21:52:20.743Z,100036.45
2018-03-26T21:54:51.914Z,100038.22
2018-03-26T21:57:22.762Z,100036.99
2018-03-26T21:59:53.753Z,100036.20
2018-03-26T22:02:24.807Z,100038.75
2018-03-26T22:04:55.775Z,100034.64
2018-03-26T22:07:26.632Z,100042.16
2018-03-26T22:09:57.535Z,100041.11
2018-03-26T22:12:29.135Z,100042.47
2018-03-26T22:14:58.389Z,100032.83
2018-03-26T22:17:28.958Z,100040.09
2018-03-26T22:19:59.795Z,100049.00
2018-03-26T22:22:30.735Z,100041.79
2018-03-26T22:25:01.752Z,100045.45
2018-03-26T22:27:32.739Z,100042.04
2018-03-26T22:30:03.814Z,100054.44
2018-03-26T22:32:34.690Z,100044.95
2018-03-26T22:35:06.110Z,100048.48
2018-03-26T22:37:36.763Z,100049.17
2018-03-26T22:40:07.263Z,100045.17
2018-03-26T22:42:38.605Z,100047.52
2018-03-26T22:45:09.637Z,100056.28
2018-03-26T22:47:40.604Z,100050.65
2018-03-26T22:50:11.617Z,100049.49
2018-03-26T22:52:42.235Z,100052.27
2018-03-26T22:55:12.748Z,100060.33
2018-03-26T22:57:43.826Z,100056.56
2018-03-26T23:00:14.204Z,100059.22
2018-03-26T23:02:45.643Z,100062.48
2018-03-26T23:05:16.296Z,100063.16
2018-03-26T23:07:46.941Z,100062.45
2018-03-26T23:10:17.771Z,100061.62
2018-03-26T23:12:50.745Z,100069.55
2018-03-26T23:15:20.184Z,100060.97
2018-03-26T23:17:50.020Z,100064.09
2018-03-26T23:20:20.898Z,100064.94
2018-03-26T23:22:51.732Z,100060.95
2018-03-26T23:25:22.776Z,100065.20
2018-03-26T23:27:53.689Z,100058.28
2018-03-26T23:30:24.781Z,100072.62
2018-03-26T23:32:55.780Z,100071.81
2018-03-26T23:35:26.769Z,100072.17
2018-03-26T23:37:57.767Z,100064.97
2018-03-26T23:40:28.406Z,100070.66
2018-03-26T23:42:59.078Z,100064.66
2018-03-26T23:45:29.834Z,100068.77
2018-03-26T23:48:00.753Z,100064.86
2018-03-26T23:50:31.794Z,100063.87
2018-03-26T23:53:02.683Z,100058.20
2018-03-26T23:55:33.705Z,100066.87
2018-03-26T23:58:04.704Z,100070.66
